sensor_id;sensor_type;location;lat;lon;timestamp;pressure;altitude;pressure_sealevel;temperature;humidity
49949;BME280;35840;45.982;8.890;2023-04-05T00:02:19;98469.06;;;7.36;48.70
49949;BME280;35840;45.982;8.890;2023-04-05T00:04:46;98469.78;;;7.38;48.73
49949;BME280;35840;45.982;8.890;2023-04-05T00:07:17;98476.44;;;7.43;48.33
49949;BME280;35840;45.982;8.890;2023-04-05T00:09:44;98472.16;;;7.43;48.29
49949;BME280;35840;45.982;8.890;2023-04-05T00:12:12;98473.19;;;7.39;48.55
49949;BME280;35840;45.982;8.890;2023-04-05T00:14:38;98474.25;;;7.35;48.67
49949;BME280;35840;45.982;8.890;2023-04-05T00:17:06;98463.38;;;7.30;48.54
49949;BME280;35840;45.982;8.890;2023-04-05T00:19:37;98469.34;;;7.30;48.74
49949;BME280;35840;45.982;8.890;2023-04-05T00:22:04;98457.03;;;7.19;49.07
49949;BME280;35840;45.982;8.890;2023-04-05T00:24:31;98470.09;;;7.32;48.51
49949;BME280;35840;45.982;8.890;2023-04-05T00:26:59;98479.44;;;7.33;48.24
49949;BME280;35840;45.982;8.890;2023-04-05T00:29:27;98482.94;;;7.31;48.20
49949;BME280;35840;45.982;8.890;2023-04-05T00:31:54;98477.28;;;7.24;48.35
49949;BME280;35840;45.982;8.890;2023-04-05T00:34:21;98464.22;;;7.11;48.95
49949;BME280;35840;45.982;8.890;2023-04-05T00:36:48;98456.91;;;7.03;48.49
49949;BME280;35840;45.982;8.890;2023-04-05T00:39:15;98484.41;;;7.17;48.23
49949;BME280;35840;45.982;8.890;2023-04-05T00:41:42;98466.63;;;6.95;48.52
49949;BME280;35840;45.982;8.890;2023-04-05T00:44:12;98477.81;;;6.93;49.38
49949;BME280;35840;45.982;8.890;2023-04-05T00:46:39;98479.59;;;6.91;49.41
49949;BME280;35840;45.982;8.890;2023-04-05T00:49:08;98472.69;;;6.93;49.26
49949;BME280;35840;45.982;8.890;2023-04-05T00:51:35;98484.22;;;7.01;49.25
49949;BME280;35840;45.982;8.890;2023-04-05T00:54:04;98485.41;;;6.94;49.21
49949;BME280;35840;45.982;8.890;2023-04-05T00:56:32;98486.44;;;6.90;49.04
49949;BME280;35840;45.982;8.890;2023-04-05T00:58:58;98489.06;;;6.88;48.87
49949;BME280;35840;45.982;8.890;2023-04-05T01:01:26;98485.88;;;6.83;49.35
49949;BME280;35840;45.982;8.890;2023-04-05T01:04:00;98490.28;;;6.80;49.28
49949;BME280;35840;45.982;8.890;2023-04-05T01:06:35;98489.53;;;6.78;48.61
49949;BME280;35840;45.982;8.890;2023-04-05T01:12:08;98480.34;;;6.74;49.71
49949;BME280;35840;45.982;8.890;2023-04-05T01:14:50;98484.59;;;6.73;48.76
49949;BME280;35840;45.982;8.890;2023-04-05T01:17:18;98478.16;;;6.64;49.04
49949;BME280;35840;45.982;8.890;2023-04-05T01:19:53;98477.72;;;6.54;49.32
49949;BME280;35840;45.982;8.890;2023-04-05T01:23:16;98475.28;;;6.51;49.63
49949;BME280;35840;45.982;8.890;2023-04-05T01:28:58;98489.22;;;6.44;49.19
49949;BME280;35840;45.982;8.890;2023-04-05T01:31:44;98481.44;;;6.27;49.52
49949;BME280;35840;45.982;8.890;2023-04-05T01:37:01;98488.69;;;6.36;50.23
49949;BME280;35840;45.982;8.890;2023-04-05T01:39:29;98491.38;;;6.33;49.70
49949;BME280;35840;45.982;8.890;2023-04-05T01:41:58;98499.81;;;6.35;50.43
49949;BME280;35840;45.982;8.890;2023-04-05T01:44:26;98498.28;;;6.31;49.53
49949;BME280;35840;45.982;8.890;2023-04-05T01:46:54;98496.69;;;6.28;49.73
49949;BME280;35840;45.982;8.890;2023-04-05T01:49:22;98507.72;;;6.29;50.17
49949;BME280;35840;45.982;8.890;2023-04-05T01:51:49;98501.97;;;6.24;49.49
49949;BME280;35840;45.982;8.890;2023-04-05T01:54:16;98494.44;;;6.20;50.07
49949;BME280;35840;45.982;8.890;2023-04-05T01:56:43;98505.50;;;6.21;50.48
49949;BME280;35840;45.982;8.890;2023-04-05T01:59:10;98495.28;;;6.21;50.37
49949;BME280;35840;45.982;8.890;2023-04-05T02:01:37;98500.31;;;6.23;49.94
49949;BME280;35840;45.982;8.890;2023-04-05T02:04:03;98505.59;;;6.18;49.31
49949;BME280;35840;45.982;8.890;2023-04-05T02:06:30;98492.34;;;6.10;50.19
49949;BME280;35840;45.982;8.890;2023-04-05T02:09:00;98507.09;;;6.01;49.64
49949;BME280;35840;45.982;8.890;2023-04-05T02:11:27;98502.94;;;5.99;50.05
49949;BME280;35840;45.982;8.890;2023-04-05T02:13:57;98504.50;;;6.03;49.98
49949;BME280;35840;45.982;8.890;2023-04-05T02:16:23;98500.34;;;6.00;50.06
49949;BME280;35840;45.982;8.890;2023-04-05T02:18:54;98490.19;;;5.99;50.01
49949;BME280;35840;45.982;8.890;2023-04-05T02:21:23;98488.56;;;5.96;50.16
49949;BME280;35840;45.982;8.890;2023-04-05T02:23:52;98499.53;;;6.00;49.96
49949;BME280;35840;45.982;8.890;2023-04-05T02:26:19;98501.81;;;6.06;50.50
49949;BME280;35840;45.982;8.890;2023-04-05T02:28:46;98506.97;;;6.05;49.54
49949;BME280;35840;45.982;8.890;2023-04-05T02:31:13;98485.25;;;5.94;50.10
49949;BME280;35840;45.982;8.890;2023-04-05T02:33:41;98503.72;;;6.01;50.10
49949;BME280;35840;45.982;8.890;2023-04-05T02:36:09;98502.25;;;5.94;50.35
49949;BME280;35840;45.982;8.890;2023-04-05T02:38:37;98495.09;;;5.81;50.15
49949;BME280;35840;45.982;8.890;2023-04-05T02:41:07;98501.91;;;5.81;50.94
49949;BME280;35840;45.982;8.890;2023-04-05T02:43:37;98499.53;;;5.76;51.16
49949;BME280;35840;45.982;8.890;2023-04-05T02:46:04;98500.31;;;5.78;50.65
49949;BME280;35840;45.982;8.890;2023-04-05T02:48:35;98502.16;;;5.75;50.86
49949;BME280;35840;45.982;8.890;2023-04-05T02:51:03;98494.50;;;5.75;51.52
49949;BME280;35840;45.982;8.890;2023-04-05T02:53:30;98497.00;;;5.76;51.75
49949;BME280;35840;45.982;8.890;2023-04-05T02:56:00;98507.69;;;5.86;51.80
49949;BME280;35840;45.982;8.890;2023-04-05T02:58:29;98488.22;;;5.83;50.58
49949;BME280;35840;45.982;8.890;2023-04-05T03:00:55;98490.63;;;5.86;50.73
49949;BME280;35840;45.982;8.890;2023-04-05T03:03:28;98492.38;;;5.86;50.67
49949;BME280;35840;45.982;8.890;2023-04-05T03:06:03;98494.19;;;5.82;51.03
49949;BME280;35840;45.982;8.890;2023-04-05T03:08:41;98495.94;;;5.82;51.12
49949;BME280;35840;45.982;8.890;2023-04-05T03:11:14;98507.81;;;5.83;50.41
49949;BME280;35840;45.982;8.890;2023-04-05T03:13:45;98498.94;;;5.69;50.07
49949;BME280;35840;45.982;8.890;2023-04-05T03:16:25;98505.84;;;5.67;50.06
49949;BME280;35840;45.982;8.890;2023-04-05T03:18:52;98500.91;;;5.63;50.12
49949;BME280;35840;45.982;8.890;2023-04-05T03:21:19;98506.22;;;5.57;50.49
49949;BME280;35840;45.982;8.890;2023-04-05T03:23:56;98500.56;;;5.48;50.69
49949;BME280;35840;45.982;8.890;2023-04-05T03:26:29;98509.28;;;5.43;50.78
49949;BME280;35840;45.982;8.890;2023-04-05T03:28:56;98506.91;;;5.38;50.65
49949;BME280;35840;45.982;8.890;2023-04-05T03:31:29;98505.31;;;5.35;51.20
49949;BME280;35840;45.982;8.890;2023-04-05T03:33:59;98501.31;;;5.28;51.32
49949;BME280;35840;45.982;8.890;2023-04-05T03:36:35;98502.31;;;5.24;51.24
49949;BME280;35840;45.982;8.890;2023-04-05T03:39:17;98519.28;;;5.25;51.47
49949;BME280;35840;45.982;8.890;2023-04-05T03:41:44;98497.28;;;5.23;51.15
49949;BME280;35840;45.982;8.890;2023-04-05T03:44:11;98497.69;;;5.12;51.11
49949;BME280;35840;45.982;8.890;2023-04-05T03:46:37;98504.44;;;5.13;51.96
49949;BME280;35840;45.982;8.890;2023-04-05T03:49:05;98504.28;;;5.17;51.92
49949;BME280;35840;45.982;8.890;2023-04-05T03:51:33;98497.44;;;5.18;52.49
49949;BME280;35840;45.982;8.890;2023-04-05T03:54:00;98500.50;;;5.28;52.10
49949;BME280;35840;45.982;8.890;2023-04-05T03:56:31;98497.22;;;5.24;51.46
49949;BME280;35840;45.982;8.890;2023-04-05T03:59:07;98497.28;;;5.23;51.89
49949;BME280;35840;45.982;8.890;2023-04-05T04:01:34;98494.78;;;5.21;51.94
49949;BME280;35840;45.982;8.890;2023-04-05T04:04:03;98489.38;;;5.07;51.35
49949;BME280;35840;45.982;8.890;2023-04-05T04:06:30;98504.28;;;5.17;50.93
49949;BME280;35840;45.982;8.890;2023-04-05T04:08:57;98502.78;;;5.12;52.02
49949;BME280;35840;45.982;8.890;2023-04-05T04:11:24;98500.25;;;5.12;52.78
49949;BME280;35840;45.982;8.890;2023-04-05T04:13:51;98489.31;;;5.08;52.29
49949;BME280;35840;45.982;8.890;2023-04-05T04:16:31;98496.78;;;5.13;52.30
49949;BME280;35840;45.982;8.890;2023-04-05T04:19:18;98497.44;;;5.18;52.57
49949;BME280;35840;45.982;8.890;2023-04-05T04:22:03;98497.34;;;5.21;53.28
49949;BME280;35840;45.982;8.890;2023-04-05T04:27:53;98493.97;;;5.21;52.37
49949;BME280;35840;45.982;8.890;2023-04-05T04:30:44;98493.97;;;5.21;52.80
49949;BME280;35840;45.982;8.890;2023-04-05T04:33:25;98487.25;;;5.18;53.03
49949;BME280;35840;45.982;8.890;2023-04-05T04:36:08;98485.28;;;5.26;52.99
49949;BME280;35840;45.982;8.890;2023-04-05T04:38:52;98485.91;;;5.31;52.65
49949;BME280;35840;45.982;8.890;2023-04-05T04:41:21;98481.59;;;5.33;52.52
49949;BME280;35840;45.982;8.890;2023-04-05T04:44:14;98487.59;;;5.32;52.57
49949;BME280;35840;45.982;8.890;2023-04-05T04:47:00;98480.88;;;5.30;52.74
49949;BME280;35840;45.982;8.890;2023-04-05T04:49:45;98484.03;;;5.37;52.64
49949;BME280;35840;45.982;8.890;2023-04-05T04:52:12;98479.81;;;5.35;53.19
49949;BME280;35840;45.982;8.890;2023-04-05T04:54:40;98476.44;;;5.35;53.52
49949;BME280;35840;45.982;8.890;2023-04-05T04:57:08;98480.59;;;5.38;53.32
49949;BME280;35840;45.982;8.890;2023-04-05T04:59:35;98480.47;;;5.41;53.10
49949;BME280;35840;45.982;8.890;2023-04-05T05:02:04;98482.31;;;5.37;53.72
49949;BME280;35840;45.982;8.890;2023-04-05T05:04:32;98478.06;;;5.38;53.81
49949;BME280;35840;45.982;8.890;2023-04-05T05:06:59;98488.88;;;5.43;54.08
49949;BME280;35840;45.982;8.890;2023-04-05T05:09:26;98488.13;;;5.41;54.53
49949;BME280;35840;45.982;8.890;2023-04-05T05:11:56;98483.03;;;5.41;54.44
49949;BME280;35840;45.982;8.890;2023-04-05T05:14:24;98489.06;;;5.38;54.14
49949;BME280;35840;45.982;8.890;2023-04-05T05:16:51;98490.75;;;5.39;54.79
49949;BME280;35840;45.982;8.890;2023-04-05T05:19:20;98492.50;;;5.37;54.93
49949;BME280;35840;45.982;8.890;2023-04-05T05:21:52;98493.16;;;5.42;54.11
49949;BME280;35840;45.982;8.890;2023-04-05T05:24:19;98482.78;;;5.47;54.21
49949;BME280;35840;45.982;8.890;2023-04-05T05:26:46;98489.03;;;5.62;53.56
49949;BME280;35840;45.982;8.890;2023-04-05T05:29:13;98493.91;;;5.68;54.28
49949;BME280;35840;45.982;8.890;2023-04-05T05:31:43;98483.34;;;5.55;54.95
49949;BME280;35840;45.982;8.890;2023-04-05T05:34:09;98495.84;;;5.61;55.48
49949;BME280;35840;45.982;8.890;2023-04-05T05:36:39;98498.19;;;5.67;55.94
49949;BME280;35840;45.982;8.890;2023-04-05T05:39:06;98506.38;;;5.76;55.42
49949;BME280;35840;45.982;8.890;2023-04-05T05:41:33;98506.13;;;5.82;55.06
49949;BME280;35840;45.982;8.890;2023-04-05T05:44:00;98501.75;;;5.85;55.42
49949;BME280;35840;45.982;8.890;2023-04-05T05:46:27;98510.16;;;5.88;55.39
49949;BME280;35840;45.982;8.890;2023-04-05T05:48:53;98503.44;;;5.85;55.59
49949;BME280;35840;45.982;8.890;2023-04-05T05:51:20;98505.56;;;5.97;55.47
49949;BME280;35840;45.982;8.890;2023-04-05T05:53:47;98507.03;;;6.03;56.19
49949;BME280;35840;45.982;8.890;2023-04-05T05:56:14;98496.13;;;5.99;56.37
49949;BME280;35840;45.982;8.890;2023-04-05T05:58:41;98493.63;;;5.98;56.04
49949;BME280;35840;45.982;8.890;2023-04-05T06:01:08;98514.44;;;6.09;56.46
49949;BME280;35840;45.982;8.890;2023-04-05T06:03:37;98518.34;;;6.18;56.24
49949;BME280;35840;45.982;8.890;2023-04-05T06:06:04;98519.66;;;6.28;55.42
49949;BME280;35840;45.982;8.890;2023-04-05T06:08:34;98514.38;;;6.33;54.51
49949;BME280;35840;45.982;8.890;2023-04-05T06:11:00;98518.53;;;6.35;55.00
49949;BME280;35840;45.982;8.890;2023-04-05T06:13:27;98516.84;;;6.34;55.37
49949;BME280;35840;45.982;8.890;2023-04-05T06:15:54;98521.06;;;6.35;55.77
49949;BME280;35840;45.982;8.890;2023-04-05T06:18:21;98508.53;;;6.29;55.80
49949;BME280;35840;45.982;8.890;2023-04-05T06:20:47;98515.97;;;6.35;55.10
49949;BME280;35840;45.982;8.890;2023-04-05T06:23:14;98523.44;;;6.40;55.24
49949;BME280;35840;45.982;8.890;2023-04-05T06:25:42;98518.19;;;6.43;55.14
49949;BME280;35840;45.982;8.890;2023-04-05T06:28:08;98514.03;;;6.41;55.56
49949;BME280;35840;45.982;8.890;2023-04-05T06:30:35;98523.13;;;6.48;55.57
49949;BME280;35840;45.982;8.890;2023-04-05T06:33:02;98517.25;;;6.46;56.02
49949;BME280;35840;45.982;8.890;2023-04-05T06:35:29;98524.91;;;6.46;55.86
49949;BME280;35840;45.982;8.890;2023-04-05T06:37:56;98529.94;;;6.47;55.83
49949;BME280;35840;45.982;8.890;2023-04-05T06:40:23;98520.69;;;6.45;55.24
49949;BME280;35840;45.982;8.890;2023-04-05T06:42:50;98519.81;;;6.46;55.65
49949;BME280;35840;45.982;8.890;2023-04-05T06:45:22;98512.06;;;6.47;55.54
49949;BME280;35840;45.982;8.890;2023-04-05T06:47:48;98515.66;;;6.64;54.04
49949;BME280;35840;45.982;8.890;2023-04-05T06:50:15;98513.19;;;6.62;54.41
49949;BME280;35840;45.982;8.890;2023-04-05T06:52:42;98519.03;;;6.64;54.84
49949;BME280;35840;45.982;8.890;2023-04-05T06:55:09;98513.25;;;6.61;54.82
49949;BME280;35840;45.982;8.890;2023-04-05T06:57:36;98515.25;;;6.73;54.28
49949;BME280;35840;45.982;8.890;2023-04-05T07:00:03;98510.09;;;6.75;54.33
49949;BME280;35840;45.982;8.890;2023-04-05T07:02:39;98512.19;;;6.85;53.10
49949;BME280;35840;45.982;8.890;2023-04-05T07:05:06;98509.56;;;6.87;53.38
49949;BME280;35840;45.982;8.890;2023-04-05T07:07:41;98513.59;;;6.93;52.80
49949;BME280;35840;45.982;8.890;2023-04-05T07:10:10;98507.00;;;6.87;51.28
49949;BME280;35840;45.982;8.890;2023-04-05T07:12:38;98497.81;;;6.83;50.95
49949;BME280;35840;45.982;8.890;2023-04-05T07:15:06;98489.13;;;6.87;51.32
49949;BME280;35840;45.982;8.890;2023-04-05T07:17:33;98497.22;;;6.97;50.95
49949;BME280;35840;45.982;8.890;2023-04-05T07:20:00;98498.47;;;6.88;50.60
49949;BME280;35840;45.982;8.890;2023-04-05T07:22:27;98496.78;;;6.87;50.74
49949;BME280;35840;45.982;8.890;2023-04-05T07:24:54;98501.53;;;6.96;51.08
49949;BME280;35840;45.982;8.890;2023-04-05T07:27:21;98505.31;;;7.06;50.68
49949;BME280;35840;45.982;8.890;2023-04-05T07:29:47;98504.63;;;7.03;50.11
49949;BME280;35840;45.982;8.890;2023-04-05T07:32:14;98504.53;;;7.04;50.86
49949;BME280;35840;45.982;8.890;2023-04-05T07:34:41;98499.13;;;7.12;50.04
49949;BME280;35840;45.982;8.890;2023-04-05T07:37:08;98503.13;;;7.18;50.24
49949;BME280;35840;45.982;8.890;2023-04-05T07:39:35;98498.50;;;7.26;51.05
49949;BME280;35840;45.982;8.890;2023-04-05T07:42:01;98497.41;;;7.32;51.31
49949;BME280;35840;45.982;8.890;2023-04-05T07:44:28;98489.44;;;7.38;49.82
49949;BME280;35840;45.982;8.890;2023-04-05T07:46:55;98489.16;;;7.44;50.75
49949;BME280;35840;45.982;8.890;2023-04-05T07:49:26;98486.06;;;7.37;46.39
49949;BME280;35840;45.982;8.890;2023-04-05T07:51:54;98490.16;;;7.41;47.56
49949;BME280;35840;45.982;8.890;2023-04-05T07:54:22;98490.25;;;7.38;47.98
49949;BME280;35840;45.982;8.890;2023-04-05T07:56:49;98493.13;;;7.51;49.70
49949;BME280;35840;45.982;8.890;2023-04-05T07:59:17;98482.75;;;7.54;47.92
49949;BME280;35840;45.982;8.890;2023-04-05T08:01:44;98483.16;;;7.45;46.36
49949;BME280;35840;45.982;8.890;2023-04-05T08:04:11;98487.00;;;7.54;45.72
49949;BME280;35840;45.982;8.890;2023-04-05T08:06:38;98486.59;;;7.44;44.41
49949;BME280;35840;45.982;8.890;2023-04-05T08:09:04;98485.91;;;7.40;43.83
49949;BME280;35840;45.982;8.890;2023-04-05T08:11:32;98485.78;;;7.44;44.79
49949;BME280;35840;45.982;8.890;2023-04-05T08:13:59;98473.06;;;7.42;42.97
49949;BME280;35840;45.982;8.890;2023-04-05T08:16:26;98479.56;;;7.49;43.04
49949;BME280;35840;45.982;8.890;2023-04-05T08:18:53;98478.69;;;7.68;43.55
49949;BME280;35840;45.982;8.890;2023-04-05T08:21:21;98481.34;;;7.84;45.25
49949;BME280;35840;45.982;8.890;2023-04-05T08:23:48;98476.63;;;7.93;43.95
49949;BME280;35840;45.982;8.890;2023-04-05T08:26:15;98477.56;;;7.92;42.55
49949;BME280;35840;45.982;8.890;2023-04-05T08:28:42;98476.13;;;8.04;43.01
49949;BME280;35840;45.982;8.890;2023-04-05T08:31:09;98466.44;;;8.11;41.07
49949;BME280;35840;45.982;8.890;2023-04-05T08:33:39;98472.38;;;8.12;39.92
49949;BME280;35840;45.982;8.890;2023-04-05T08:36:06;98480.75;;;8.15;40.54
49949;BME280;35840;45.982;8.890;2023-04-05T08:38:34;98475.22;;;8.23;41.53
49949;BME280;35840;45.982;8.890;2023-04-05T08:41:16;98476.44;;;8.33;42.71
49949;BME280;35840;45.982;8.890;2023-04-05T08:43:58;98469.34;;;8.38;41.62
49949;BME280;35840;45.982;8.890;2023-04-05T08:46:32;98477.41;;;8.31;41.05
49949;BME280;35840;45.982;8.890;2023-04-05T08:49:08;98469.72;;;8.31;41.87
49949;BME280;35840;45.982;8.890;2023-04-05T08:51:37;98472.25;;;8.50;41.23
49949;BME280;35840;45.982;8.890;2023-04-05T08:54:06;98471.34;;;8.51;38.14
49949;BME280;35840;45.982;8.890;2023-04-05T08:56:34;98463.34;;;8.57;41.31
49949;BME280;35840;45.982;8.890;2023-04-05T08:59:06;98468.75;;;8.68;41.84
49949;BME280;35840;45.982;8.890;2023-04-05T09:01:40;98468.22;;;8.61;39.12
49949;BME280;35840;45.982;8.890;2023-04-05T09:04:15;98475.00;;;8.63;41.06
49949;BME280;35840;45.982;8.890;2023-04-05T09:06:43;98476.97;;;8.75;40.07
49949;BME280;35840;45.982;8.890;2023-04-05T09:09:10;98466.97;;;8.86;39.97
49949;BME280;35840;45.982;8.890;2023-04-05T09:11:38;98465.75;;;8.93;39.59
49949;BME280;35840;45.982;8.890;2023-04-05T09:14:06;98457.72;;;8.84;37.73
49949;BME280;35840;45.982;8.890;2023-04-05T09:16:36;98473.69;;;8.89;40.25
49949;BME280;35840;45.982;8.890;2023-04-05T09:19:03;98462.69;;;8.87;39.27
49949;BME280;35840;45.982;8.890;2023-04-05T09:22:00;98466.81;;;8.89;37.95
49949;BME280;35840;45.982;8.890;2023-04-05T09:24:40;98466.75;;;8.91;38.79
49949;BME280;35840;45.982;8.890;2023-04-05T09:29:39;98452.84;;;8.95;39.92
49949;BME280;35840;45.982;8.890;2023-04-05T09:32:09;98458.06;;;8.93;38.64
49949;BME280;35840;45.982;8.890;2023-04-05T09:34:38;98449.06;;;9.02;39.20
49949;BME280;35840;45.982;8.890;2023-04-05T09:37:15;98450.06;;;9.16;39.98
49949;BME280;35840;45.982;8.890;2023-04-05T09:39:43;98446.75;;;9.13;38.53
49949;BME280;35840;45.982;8.890;2023-04-05T09:42:12;98443.38;;;9.29;40.35
49949;BME280;35840;45.982;8.890;2023-04-05T09:44:52;98452.31;;;9.38;40.83
49949;BME280;35840;45.982;8.890;2023-04-05T09:47:22;98433.41;;;9.55;41.73
49949;BME280;35840;45.982;8.890;2023-04-05T09:49:56;98434.44;;;9.36;39.43
49949;BME280;35840;45.982;8.890;2023-04-05T09:52:30;98433.16;;;9.59;41.94
49949;BME280;35840;45.982;8.890;2023-04-05T09:55:00;98429.59;;;9.62;38.51
49949;BME280;35840;45.982;8.890;2023-04-05T09:57:33;98425.88;;;9.68;38.88
49949;BME280;35840;45.982;8.890;2023-04-05T10:00:00;98423.16;;;9.55;38.90
49949;BME280;35840;45.982;8.890;2023-04-05T10:02:37;98422.47;;;9.51;38.51
49949;BME280;35840;45.982;8.890;2023-04-05T10:05:08;98416.03;;;9.60;36.84
49949;BME280;35840;45.982;8.890;2023-04-05T10:07:41;98416.03;;;9.60;37.27
49949;BME280;35840;45.982;8.890;2023-04-05T10:10:09;98413.53;;;9.74;40.02
49949;BME280;35840;45.982;8.890;2023-04-05T10:12:39;98414.22;;;9.92;40.01
49949;BME280;35840;45.982;8.890;2023-04-05T10:15:07;98417.75;;;10.06;39.25
49949;BME280;35840;45.982;8.890;2023-04-05T10:20:24;98402.44;;;10.19;37.02
49949;BME280;35840;45.982;8.890;2023-04-05T10:25:23;98408.16;;;10.24;38.59
49949;BME280;35840;45.982;8.890;2023-04-05T10:28:02;98398.06;;;10.21;38.92
49949;BME280;35840;45.982;8.890;2023-04-05T10:30:35;98380.13;;;10.05;38.61
49949;BME280;35840;45.982;8.890;2023-04-05T10:33:09;98402.06;;;10.25;39.18
49949;BME280;35840;45.982;8.890;2023-04-05T10:38:28;98398.31;;;10.30;37.56
49949;BME280;35840;45.982;8.890;2023-04-05T10:41:06;98379.44;;;10.31;40.06
49949;BME280;35840;45.982;8.890;2023-04-05T10:43:37;98397.72;;;10.56;36.64
49949;BME280;35840;45.982;8.890;2023-04-05T10:46:10;98395.72;;;10.46;37.68
49949;BME280;35840;45.982;8.890;2023-04-05T10:51:35;98385.25;;;10.49;38.08
49949;BME280;35840;45.982;8.890;2023-04-05T10:54:03;98382.47;;;10.67;37.48
49949;BME280;35840;45.982;8.890;2023-04-05T10:56:30;98375.59;;;10.39;37.95
49949;BME280;35840;45.982;8.890;2023-04-05T10:58:59;98385.06;;;10.53;37.80
49949;BME280;35840;45.982;8.890;2023-04-05T11:01:27;98375.06;;;10.62;38.88
49949;BME280;35840;45.982;8.890;2023-04-05T11:03:54;98377.72;;;10.61;37.84
49949;BME280;35840;45.982;8.890;2023-04-05T11:06:22;98375.41;;;10.42;38.03
49949;BME280;35840;45.982;8.890;2023-04-05T11:08:53;98367.53;;;10.59;37.44
49949;BME280;35840;45.982;8.890;2023-04-05T11:11:21;98349.44;;;10.61;39.50
49949;BME280;35840;45.982;8.890;2023-04-05T11:16:19;98366.41;;;11.19;39.96
49949;BME280;35840;45.982;8.890;2023-04-05T11:18:47;98357.13;;;11.17;38.13
49949;BME280;35840;45.982;8.890;2023-04-05T11:21:24;98345.66;;;11.08;36.98
49949;BME280;35840;45.982;8.890;2023-04-05T11:24:05;98348.00;;;10.98;36.49
49949;BME280;35840;45.982;8.890;2023-04-05T11:26:54;98352.06;;;10.88;37.33
49949;BME280;35840;45.982;8.890;2023-04-05T11:29:47;98344.25;;;10.90;39.16
49949;BME280;35840;45.982;8.890;2023-04-05T11:32:15;98351.13;;;11.03;40.05
49949;BME280;35840;45.982;8.890;2023-04-05T11:34:43;98345.00;;;11.19;38.95
49949;BME280;35840;45.982;8.890;2023-04-05T11:37:10;98340.69;;;11.19;39.11
49949;BME280;35840;45.982;8.890;2023-04-05T11:39:36;98339.91;;;11.32;38.92
49949;BME280;35840;45.982;8.890;2023-04-05T11:42:10;98342.44;;;11.19;38.27
49949;BME280;35840;45.982;8.890;2023-04-05T11:44:46;98319.84;;;11.10;37.75
49949;BME280;35840;45.982;8.890;2023-04-05T11:47:17;98335.72;;;11.16;36.59
49949;BME280;35840;45.982;8.890;2023-04-05T11:49:51;98331.66;;;11.27;39.31
49949;BME280;35840;45.982;8.890;2023-04-05T11:52:19;98304.16;;;11.00;37.61
49949;BME280;35840;45.982;8.890;2023-04-05T11:54:46;98326.09;;;11.06;37.46
49949;BME280;35840;45.982;8.890;2023-04-05T11:57:19;98329.16;;;11.25;37.02
49949;BME280;35840;45.982;8.890;2023-04-05T11:59:52;98330.53;;;11.31;36.99
49949;BME280;35840;45.982;8.890;2023-04-05T12:02:19;98323.25;;;11.37;37.92
49949;BME280;35840;45.982;8.890;2023-04-05T12:04:54;98307.16;;;11.34;37.30
49949;BME280;35840;45.982;8.890;2023-04-05T12:07:25;98312.88;;;11.52;39.02
49949;BME280;35840;45.982;8.890;2023-04-05T12:10:07;98308.06;;;11.73;36.00
49949;BME280;35840;45.982;8.890;2023-04-05T12:12:39;98315.25;;;11.68;36.35
49949;BME280;35840;45.982;8.890;2023-04-05T12:15:07;98313.66;;;11.80;37.83
49949;BME280;35840;45.982;8.890;2023-04-05T12:18:00;98307.88;;;11.89;37.99
49949;BME280;35840;45.982;8.890;2023-04-05T12:20:27;98305.75;;;11.96;39.21
49949;BME280;35840;45.982;8.890;2023-04-05T12:22:55;98305.53;;;11.99;37.56
49949;BME280;35840;45.982;8.890;2023-04-05T12:25:23;98293.84;;;11.93;37.79
49949;BME280;35840;45.982;8.890;2023-04-05T12:27:50;98293.56;;;11.98;36.02
49949;BME280;35840;45.982;8.890;2023-04-05T12:30:21;98295.03;;;12.02;37.48
49949;BME280;35840;45.982;8.890;2023-04-05T12:32:53;98284.81;;;12.13;37.36
49949;BME280;35840;45.982;8.890;2023-04-05T12:35:22;98287.00;;;12.19;36.58
49949;BME280;35840;45.982;8.890;2023-04-05T12:37:50;98281.75;;;12.08;35.06
49949;BME280;35840;45.982;8.890;2023-04-05T12:40:21;98277.50;;;12.07;36.32
49949;BME280;35840;45.982;8.890;2023-04-05T12:42:49;98279.38;;;12.05;35.51
49949;BME280;35840;45.982;8.890;2023-04-05T12:45:16;98269.25;;;12.02;35.30
49949;BME280;35840;45.982;8.890;2023-04-05T12:47:48;98266.28;;;11.95;36.38
49949;BME280;35840;45.982;8.890;2023-04-05T12:50:18;98273.59;;;12.01;37.25
49949;BME280;35840;45.982;8.890;2023-04-05T12:53:25;98271.41;;;12.21;37.04
49949;BME280;35840;45.982;8.890;2023-04-05T12:55:52;98264.50;;;12.21;36.20
49949;BME280;35840;45.982;8.890;2023-04-05T12:58:21;98267.19;;;12.20;35.25
49949;BME280;35840;45.982;8.890;2023-04-05T13:00:48;98258.34;;;12.11;36.49
49949;BME280;35840;45.982;8.890;2023-04-05T13:03:18;98263.91;;;12.05;35.52
49949;BME280;35840;45.982;8.890;2023-04-05T13:05:47;98258.31;;;12.24;36.45
49949;BME280;35840;45.982;8.890;2023-04-05T13:08:17;98250.06;;;12.19;35.86
49949;BME280;35840;45.982;8.890;2023-04-05T13:10:45;98252.84;;;12.29;36.31
49949;BME280;35840;45.982;8.890;2023-04-05T13:13:12;98236.75;;;12.38;35.79
49949;BME280;35840;45.982;8.890;2023-04-05T13:15:39;98241.13;;;12.49;35.88
49949;BME280;35840;45.982;8.890;2023-04-05T13:18:07;98237.97;;;12.69;35.86
49949;BME280;35840;45.982;8.890;2023-04-05T13:20:34;98236.38;;;12.80;36.66
49949;BME280;35840;45.982;8.890;2023-04-05T13:23:01;98230.69;;;12.87;36.21
49949;BME280;35840;45.982;8.890;2023-04-05T13:25:28;98221.84;;;12.79;33.38
49949;BME280;35840;45.982;8.890;2023-04-05T13:27:54;98220.25;;;12.65;36.69
49949;BME280;35840;45.982;8.890;2023-04-05T13:30:21;98220.09;;;12.79;35.96
49949;BME280;35840;45.982;8.890;2023-04-05T13:32:48;98214.75;;;12.94;35.98
49949;BME280;35840;45.982;8.890;2023-04-05T13:35:14;98210.66;;;13.02;34.93
49949;BME280;35840;45.982;8.890;2023-04-05T13:37:41;98211.50;;;13.03;34.24
49949;BME280;35840;45.982;8.890;2023-04-05T13:40:09;98213.03;;;13.05;33.63
49949;BME280;35840;45.982;8.890;2023-04-05T13:42:36;98189.88;;;12.92;35.30
49949;BME280;35840;45.982;8.890;2023-04-05T13:45:03;98189.41;;;12.87;34.77
49949;BME280;35840;45.982;8.890;2023-04-05T13:47:30;98206.66;;;12.98;36.23
49949;BME280;35840;45.982;8.890;2023-04-05T13:49:57;98201.69;;;13.19;34.83
49949;BME280;35840;45.982;8.890;2023-04-05T13:52:24;98199.84;;;13.21;34.11